sensor_id;sensor_type;location;lat;lon;timestamp;P1;durP1;ratioP1;P2;durP2;ratioP2
14984;SDS011;7588;62.368;25.902;2023-03-01T00:01:27;4.33;;;1.80;;
14984;SDS011;7588;62.368;25.902;2023-03-01T00:03:55;5.63;;;1.90;;
14984;SDS011;7588;62.368;25.902;2023-03-01T00:06:21;4.40;;;1.97;;
14984;SDS011;7588;62.368;25.902;2023-03-01T00:08:48;2.00;;;1.50;;
14984;SDS011;7588;62.368;25.902;2023-03-01T00:13:45;3.13;;;1.60;;
14984;SDS011;7588;62.368;25.902;2023-03-01T00:16:13;3.13;;;2.00;;
14984;SDS011;7588;62.368;25.902;2023-03-01T00:18:40;6.03;;;2.13;;
14984;SDS011;7588;62.368;25.902;2023-03-01T00:21:06;3.33;;;1.83;;
14984;SDS011;7588;62.368;25.902;2023-03-01T00:23:35;4.60;;;2.33;;
14984;SDS011;7588;62.368;25.902;2023-03-01T00:26:02;4.43;;;2.13;;
14984;SDS011;7588;62.368;25.902;2023-03-01T00:28:31;2.30;;;2.10;;
14984;SDS011;7588;62.368;25.902;2023-03-01T00:31:02;3.37;;;1.90;;
14984;SDS011;7588;62.368;25.902;2023-03-01T00:33:31;3.03;;;2.40;;
14984;SDS011;7588;62.368;25.902;2023-03-01T00:35:58;2.77;;;2.00;;
14984;SDS011;7588;62.368;25.902;2023-03-01T00:38:24;5.13;;;2.07;;
14984;SDS011;7588;62.368;25.902;2023-03-01T00:40:50;5.53;;;1.60;;
14984;SDS011;7588;62.368;25.902;2023-03-01T00:43:15;2.07;;;1.97;;
14984;SDS011;7588;62.368;25.902;2023-03-01T00:45:41;3.93;;;1.80;;
14984;SDS011;7588;62.368;25.902;2023-03-01T00:48:07;4.13;;;1.80;;
14984;SDS011;7588;62.368;25.902;2023-03-01T00:50:32;6.43;;;2.00;;
14984;SDS011;7588;62.368;25.902;2023-03-01T00:52:58;3.00;;;1.60;;
14984;SDS011;7588;62.368;25.902;2023-03-01T00:55:24;2.63;;;2.20;;
14984;SDS011;7588;62.368;25.902;2023-03-01T00:57:50;1.73;;;1.50;;
14984;SDS011;7588;62.368;25.902;2023-03-01T01:00:16;2.63;;;2.40;;
14984;SDS011;7588;62.368;25.902;2023-03-01T01:02:43;3.33;;;2.23;;
14984;SDS011;7588;62.368;25.902;2023-03-01T01:05:09;4.33;;;1.93;;
14984;SDS011;7588;62.368;25.902;2023-03-01T01:07:36;1.87;;;1.47;;
14984;SDS011;7588;62.368;25.902;2023-03-01T01:10:02;4.13;;;2.37;;
14984;SDS011;7588;62.368;25.902;2023-03-01T01:12:29;4.70;;;1.90;;
14984;SDS011;7588;62.368;25.902;2023-03-01T01:14:55;1.70;;;1.60;;
14984;SDS011;7588;62.368;25.902;2023-03-01T01:17:21;3.23;;;2.50;;
14984;SDS011;7588;62.368;25.902;2023-03-01T01:19:47;3.60;;;1.70;;
14984;SDS011;7588;62.368;25.902;2023-03-01T01:22:12;5.87;;;1.60;;
14984;SDS011;7588;62.368;25.902;2023-03-01T01:24:38;3.27;;;2.27;;
14984;SDS011;7588;62.368;25.902;2023-03-01T01:27:04;3.60;;;2.27;;
14984;SDS011;7588;62.368;25.902;2023-03-01T01:29:29;3.57;;;1.77;;
14984;SDS011;7588;62.368;25.902;2023-03-01T01:31:55;2.97;;;1.93;;
14984;SDS011;7588;62.368;25.902;2023-03-01T01:34:21;1.77;;;1.60;;
14984;SDS011;7588;62.368;25.902;2023-03-01T01:36:47;4.70;;;2.27;;
14984;SDS011;7588;62.368;25.902;2023-03-01T01:39:19;4.30;;;1.80;;
14984;SDS011;7588;62.368;25.902;2023-03-01T01:41:45;3.20;;;2.83;;
14984;SDS011;7588;62.368;25.902;2023-03-01T01:46:46;3.10;;;2.40;;
14984;SDS011;7588;62.368;25.902;2023-03-01T01:49:22;6.03;;;2.40;;
14984;SDS011;7588;62.368;25.902;2023-03-01T01:51:55;2.43;;;1.77;;
14984;SDS011;7588;62.368;25.902;2023-03-01T01:55:02;3.00;;;2.03;;
14984;SDS011;7588;62.368;25.902;2023-03-01T01:57:44;3.00;;;1.80;;
14984;SDS011;7588;62.368;25.902;2023-03-01T02:00:12;5.87;;;1.67;;
14984;SDS011;7588;62.368;25.902;2023-03-01T02:02:41;2.27;;;1.90;;
14984;SDS011;7588;62.368;25.902;2023-03-01T02:05:11;4.10;;;2.20;;
14984;SDS011;7588;62.368;25.902;2023-03-01T02:07:52;2.30;;;1.50;;
14984;SDS011;7588;62.368;25.902;2023-03-01T02:10:19;4.60;;;2.43;;
14984;SDS011;7588;62.368;25.902;2023-03-01T02:12:47;5.60;;;1.67;;
14984;SDS011;7588;62.368;25.902;2023-03-01T02:15:13;3.33;;;1.63;;
14984;SDS011;7588;62.368;25.902;2023-03-01T02:17:39;4.07;;;1.90;;
14984;SDS011;7588;62.368;25.902;2023-03-01T02:22:46;4.03;;;2.13;;
14984;SDS011;7588;62.368;25.902;2023-03-01T02:25:19;2.30;;;1.83;;
14984;SDS011;7588;62.368;25.902;2023-03-01T02:30:43;3.83;;;1.77;;
14984;SDS011;7588;62.368;25.902;2023-03-01T02:33:31;4.63;;;1.80;;
14984;SDS011;7588;62.368;25.902;2023-03-01T02:36:01;4.17;;;2.70;;
14984;SDS011;7588;62.368;25.902;2023-03-01T02:38:31;2.30;;;1.93;;
14984;SDS011;7588;62.368;25.902;2023-03-01T02:40:57;5.83;;;2.40;;
14984;SDS011;7588;62.368;25.902;2023-03-01T02:43:24;4.63;;;2.00;;
14984;SDS011;7588;62.368;25.902;2023-03-01T02:45:56;3.97;;;2.10;;
14984;SDS011;7588;62.368;25.902;2023-03-01T02:48:23;4.07;;;2.50;;
14984;SDS011;7588;62.368;25.902;2023-03-01T02:53:27;2.87;;;2.57;;
14984;SDS011;7588;62.368;25.902;2023-03-01T02:55:55;5.03;;;1.80;;
14984;SDS011;7588;62.368;25.902;2023-03-01T02:58:20;2.30;;;2.10;;
14984;SDS011;7588;62.368;25.902;2023-03-01T03:00:46;2.50;;;2.30;;
14984;SDS011;7588;62.368;25.902;2023-03-01T03:03:14;2.23;;;1.53;;
14984;SDS011;7588;62.368;25.902;2023-03-01T03:05:41;4.30;;;2.30;;
14984;SDS011;7588;62.368;25.902;2023-03-01T03:08:08;3.87;;;2.43;;
14984;SDS011;7588;62.368;25.902;2023-03-01T03:10:35;5.27;;;2.30;;
14984;SDS011;7588;62.368;25.902;2023-03-01T03:13:05;1.90;;;1.80;;
14984;SDS011;7588;62.368;25.902;2023-03-01T03:15:33;2.13;;;1.60;;
14984;SDS011;7588;62.368;25.902;2023-03-01T03:18:02;3.33;;;2.20;;
14984;SDS011;7588;62.368;25.902;2023-03-01T03:20:29;3.87;;;2.20;;
14984;SDS011;7588;62.368;25.902;2023-03-01T03:22:56;4.27;;;1.63;;
14984;SDS011;7588;62.368;25.902;2023-03-01T03:25:25;4.20;;;2.47;;
14984;SDS011;7588;62.368;25.902;2023-03-01T03:27:53;3.60;;;2.37;;
14984;SDS011;7588;62.368;25.902;2023-03-01T03:30:21;4.33;;;1.77;;
14984;SDS011;7588;62.368;25.902;2023-03-01T03:32:49;3.63;;;2.10;;
14984;SDS011;7588;62.368;25.902;2023-03-01T03:35:21;4.07;;;1.87;;
14984;SDS011;7588;62.368;25.902;2023-03-01T03:37:55;2.80;;;1.60;;
14984;SDS011;7588;62.368;25.902;2023-03-01T03:40:38;3.63;;;2.27;;
14984;SDS011;7588;62.368;25.902;2023-03-01T03:43:06;5.57;;;1.77;;
14984;SDS011;7588;62.368;25.902;2023-03-01T03:45:34;4.83;;;2.13;;
14984;SDS011;7588;62.368;25.902;2023-03-01T03:48:01;2.97;;;1.73;;
14984;SDS011;7588;62.368;25.902;2023-03-01T03:50:28;2.97;;;1.70;;
14984;SDS011;7588;62.368;25.902;2023-03-01T03:52:54;4.20;;;1.93;;
14984;SDS011;7588;62.368;25.902;2023-03-01T03:55:20;3.60;;;1.90;;
14984;SDS011;7588;62.368;25.902;2023-03-01T03:57:47;2.90;;;2.00;;
14984;SDS011;7588;62.368;25.902;2023-03-01T04:00:22;4.30;;;2.17;;
14984;SDS011;7588;62.368;25.902;2023-03-01T04:02:49;1.97;;;1.80;;
14984;SDS011;7588;62.368;25.902;2023-03-01T04:05:16;1.80;;;1.70;;
14984;SDS011;7588;62.368;25.902;2023-03-01T04:07:43;3.80;;;2.30;;
14984;SDS011;7588;62.368;25.902;2023-03-01T04:10:11;3.73;;;2.17;;
14984;SDS011;7588;62.368;25.902;2023-03-01T04:12:40;3.97;;;2.30;;
14984;SDS011;7588;62.368;25.902;2023-03-01T04:15:08;4.27;;;2.60;;
14984;SDS011;7588;62.368;25.902;2023-03-01T04:17:40;2.90;;;2.07;;
14984;SDS011;7588;62.368;25.902;2023-03-01T04:20:10;4.93;;;2.30;;
14984;SDS011;7588;62.368;25.902;2023-03-01T04:22:49;4.67;;;2.00;;
14984;SDS011;7588;62.368;25.902;2023-03-01T04:25:17;2.27;;;2.07;;
14984;SDS011;7588;62.368;25.902;2023-03-01T04:27:42;2.97;;;1.93;;
14984;SDS011;7588;62.368;25.902;2023-03-01T04:30:08;3.23;;;1.37;;
14984;SDS011;7588;62.368;25.902;2023-03-01T04:32:34;5.53;;;2.33;;
14984;SDS011;7588;62.368;25.902;2023-03-01T04:35:00;6.87;;;2.50;;
14984;SDS011;7588;62.368;25.902;2023-03-01T04:37:26;4.53;;;1.87;;
14984;SDS011;7588;62.368;25.902;2023-03-01T04:39:52;4.23;;;2.10;;
14984;SDS011;7588;62.368;25.902;2023-03-01T04:42:18;4.17;;;2.20;;
14984;SDS011;7588;62.368;25.902;2023-03-01T04:44:44;3.37;;;2.20;;
14984;SDS011;7588;62.368;25.902;2023-03-01T04:47:10;4.80;;;2.03;;
14984;SDS011;7588;62.368;25.902;2023-03-01T04:49:36;2.10;;;1.80;;
14984;SDS011;7588;62.368;25.902;2023-03-01T04:52:03;2.40;;;1.50;;
14984;SDS011;7588;62.368;25.902;2023-03-01T04:54:29;2.30;;;2.17;;
14984;SDS011;7588;62.368;25.902;2023-03-01T04:56:59;4.00;;;1.37;;
14984;SDS011;7588;62.368;25.902;2023-03-01T04:59:26;3.33;;;2.00;;
14984;SDS011;7588;62.368;25.902;2023-03-01T05:01:52;3.03;;;1.60;;
14984;SDS011;7588;62.368;25.902;2023-03-01T05:04:22;2.00;;;1.90;;
14984;SDS011;7588;62.368;25.902;2023-03-01T05:06:49;4.60;;;2.30;;
14984;SDS011;7588;62.368;25.902;2023-03-01T05:09:15;7.27;;;2.20;;
14984;SDS011;7588;62.368;25.902;2023-03-01T05:11:41;4.57;;;2.50;;
14984;SDS011;7588;62.368;25.902;2023-03-01T05:14:07;3.43;;;1.60;;
14984;SDS011;7588;62.368;25.902;2023-03-01T05:16:35;3.10;;;2.13;;
14984;SDS011;7588;62.368;25.902;2023-03-01T05:19:02;3.03;;;2.17;;
14984;SDS011;7588;62.368;25.902;2023-03-01T05:21:37;2.43;;;1.67;;
14984;SDS011;7588;62.368;25.902;2023-03-01T05:24:23;7.07;;;2.13;;
14984;SDS011;7588;62.368;25.902;2023-03-01T05:26:49;3.30;;;2.43;;
14984;SDS011;7588;62.368;25.902;2023-03-01T05:29:17;4.00;;;1.87;;
14984;SDS011;7588;62.368;25.902;2023-03-01T05:31:44;1.67;;;1.57;;
14984;SDS011;7588;62.368;25.902;2023-03-01T05:34:09;3.30;;;2.10;;
14984;SDS011;7588;62.368;25.902;2023-03-01T05:36:37;2.13;;;1.80;;
14984;SDS011;7588;62.368;25.902;2023-03-01T05:39:03;3.43;;;1.90;;
14984;SDS011;7588;62.368;25.902;2023-03-01T05:41:29;4.40;;;2.13;;
14984;SDS011;7588;62.368;25.902;2023-03-01T05:43:55;3.10;;;2.30;;
14984;SDS011;7588;62.368;25.902;2023-03-01T05:46:21;4.03;;;2.33;;
14984;SDS011;7588;62.368;25.902;2023-03-01T05:48:49;2.83;;;1.80;;
14984;SDS011;7588;62.368;25.902;2023-03-01T05:51:15;2.90;;;1.87;;
14984;SDS011;7588;62.368;25.902;2023-03-01T05:53:40;1.70;;;1.50;;
14984;SDS011;7588;62.368;25.902;2023-03-01T05:56:06;2.60;;;1.90;;
14984;SDS011;7588;62.368;25.902;2023-03-01T05:58:32;2.83;;;1.70;;
14984;SDS011;7588;62.368;25.902;2023-03-01T06:00:58;4.30;;;1.83;;
14984;SDS011;7588;62.368;25.902;2023-03-01T06:03:24;2.53;;;2.03;;
14984;SDS011;7588;62.368;25.902;2023-03-01T06:05:55;2.37;;;1.60;;
14984;SDS011;7588;62.368;25.902;2023-03-01T06:08:21;2.53;;;1.67;;
14984;SDS011;7588;62.368;25.902;2023-03-01T06:10:47;1.73;;;1.57;;
14984;SDS011;7588;62.368;25.902;2023-03-01T06:13:13;4.00;;;2.30;;
14984;SDS011;7588;62.368;25.902;2023-03-01T06:15:38;3.23;;;1.77;;
14984;SDS011;7588;62.368;25.902;2023-03-01T06:18:04;2.57;;;2.20;;
14984;SDS011;7588;62.368;25.902;2023-03-01T06:20:29;5.83;;;1.73;;
14984;SDS011;7588;62.368;25.902;2023-03-01T06:22:57;3.13;;;1.93;;
14984;SDS011;7588;62.368;25.902;2023-03-01T06:25:24;4.63;;;2.00;;
14984;SDS011;7588;62.368;25.902;2023-03-01T06:27:51;2.70;;;1.90;;
14984;SDS011;7588;62.368;25.902;2023-03-01T06:30:18;2.40;;;2.20;;
14984;SDS011;7588;62.368;25.902;2023-03-01T06:32:45;3.33;;;2.10;;
14984;SDS011;7588;62.368;25.902;2023-03-01T06:35:11;3.13;;;2.00;;
14984;SDS011;7588;62.368;25.902;2023-03-01T06:37:39;2.73;;;1.80;;
14984;SDS011;7588;62.368;25.902;2023-03-01T06:40:06;1.93;;;1.50;;
14984;SDS011;7588;62.368;25.902;2023-03-01T06:42:36;5.27;;;2.00;;
14984;SDS011;7588;62.368;25.902;2023-03-01T06:45:03;3.57;;;2.23;;
14984;SDS011;7588;62.368;25.902;2023-03-01T06:47:30;2.40;;;2.20;;
14984;SDS011;7588;62.368;25.902;2023-03-01T06:49:58;3.60;;;1.67;;
14984;SDS011;7588;62.368;25.902;2023-03-01T06:52:24;3.07;;;1.83;;
14984;SDS011;7588;62.368;25.902;2023-03-01T06:54:50;4.07;;;1.63;;
14984;SDS011;7588;62.368;25.902;2023-03-01T06:57:15;4.00;;;2.53;;
14984;SDS011;7588;62.368;25.902;2023-03-01T06:59:41;3.37;;;1.80;;
14984;SDS011;7588;62.368;25.902;2023-03-01T07:02:09;6.57;;;1.70;;
14984;SDS011;7588;62.368;25.902;2023-03-01T07:04:36;2.57;;;1.90;;
14984;SDS011;7588;62.368;25.902;2023-03-01T07:07:02;5.73;;;1.87;;
14984;SDS011;7588;62.368;25.902;2023-03-01T07:09:27;3.13;;;1.87;;
14984;SDS011;7588;62.368;25.902;2023-03-01T07:11:53;4.03;;;2.17;;
14984;SDS011;7588;62.368;25.902;2023-03-01T07:14:19;1.50;;;1.40;;
14984;SDS011;7588;62.368;25.902;2023-03-01T07:16:45;2.03;;;1.73;;
14984;SDS011;7588;62.368;25.902;2023-03-01T07:19:11;1.70;;;1.43;;
14984;SDS011;7588;62.368;25.902;2023-03-01T07:21:37;4.17;;;1.93;;
14984;SDS011;7588;62.368;25.902;2023-03-01T07:24:06;1.50;;;1.40;;
14984;SDS011;7588;62.368;25.902;2023-03-01T07:26:32;2.90;;;1.63;;
14984;SDS011;7588;62.368;25.902;2023-03-01T07:28:59;3.30;;;1.70;;
14984;SDS011;7588;62.368;25.902;2023-03-01T07:31:25;1.97;;;1.63;;
14984;SDS011;7588;62.368;25.902;2023-03-01T07:33:53;2.30;;;1.80;;
14984;SDS011;7588;62.368;25.902;2023-03-01T07:36:19;2.20;;;1.63;;
14984;SDS011;7588;62.368;25.902;2023-03-01T07:38:45;1.77;;;1.67;;
14984;SDS011;7588;62.368;25.902;2023-03-01T07:41:11;3.03;;;1.80;;
14984;SDS011;7588;62.368;25.902;2023-03-01T07:43:36;2.10;;;1.90;;
14984;SDS011;7588;62.368;25.902;2023-03-01T07:46:02;4.03;;;1.93;;
14984;SDS011;7588;62.368;25.902;2023-03-01T07:48:29;2.37;;;1.60;;
14984;SDS011;7588;62.368;25.902;2023-03-01T07:50:59;3.57;;;1.90;;
14984;SDS011;7588;62.368;25.902;2023-03-01T07:53:25;2.00;;;1.80;;
14984;SDS011;7588;62.368;25.902;2023-03-01T07:56:13;2.50;;;1.70;;
14984;SDS011;7588;62.368;25.902;2023-03-01T07:58:40;2.80;;;1.57;;
14984;SDS011;7588;62.368;25.902;2023-03-01T08:01:07;2.00;;;1.90;;
14984;SDS011;7588;62.368;25.902;2023-03-01T08:03:35;4.60;;;2.07;;
14984;SDS011;7588;62.368;25.902;2023-03-01T08:06:02;1.80;;;1.70;;
14984;SDS011;7588;62.368;25.902;2023-03-01T08:08:30;1.90;;;1.80;;
14984;SDS011;7588;62.368;25.902;2023-03-01T08:10:56;5.80;;;2.00;;
14984;SDS011;7588;62.368;25.902;2023-03-01T08:13:22;3.90;;;1.50;;
14984;SDS011;7588;62.368;25.902;2023-03-01T08:15:48;1.67;;;1.57;;
14984;SDS011;7588;62.368;25.902;2023-03-01T08:18:15;6.07;;;1.60;;
14984;SDS011;7588;62.368;25.902;2023-03-01T08:20:45;24.57;;;14.90;;
14984;SDS011;7588;62.368;25.902;2023-03-01T08:23:11;16.93;;;13.03;;
14984;SDS011;7588;62.368;25.902;2023-03-01T08:25:37;15.13;;;10.77;;
14984;SDS011;7588;62.368;25.902;2023-03-01T08:28:03;6.83;;;4.97;;
14984;SDS011;7588;62.368;25.902;2023-03-01T08:30:29;5.13;;;3.63;;
14984;SDS011;7588;62.368;25.902;2023-03-01T08:32:55;5.83;;;3.80;;
14984;SDS011;7588;62.368;25.902;2023-03-01T08:35:21;2.63;;;2.43;;
14984;SDS011;7588;62.368;25.902;2023-03-01T08:37:47;1.93;;;1.70;;
14984;SDS011;7588;62.368;25.902;2023-03-01T08:40:13;3.80;;;1.80;;
14984;SDS011;7588;62.368;25.902;2023-03-01T08:42:39;2.27;;;1.57;;
14984;SDS011;7588;62.368;25.902;2023-03-01T08:45:06;5.47;;;1.60;;
14984;SDS011;7588;62.368;25.902;2023-03-01T08:47:32;6.00;;;1.90;;
14984;SDS011;7588;62.368;25.902;2023-03-01T08:49:59;1.93;;;1.47;;
14984;SDS011;7588;62.368;25.902;2023-03-01T08:52:25;4.73;;;2.00;;
14984;SDS011;7588;62.368;25.902;2023-03-01T08:54:51;2.90;;;1.53;;
14984;SDS011;7588;62.368;25.902;2023-03-01T08:57:17;2.63;;;1.23;;
14984;SDS011;7588;62.368;25.902;2023-03-01T08:59:43;3.07;;;1.30;;
14984;SDS011;7588;62.368;25.902;2023-03-01T09:02:13;1.77;;;1.27;;
14984;SDS011;7588;62.368;25.902;2023-03-01T09:04:40;1.70;;;1.60;;
14984;SDS011;7588;62.368;25.902;2023-03-01T09:07:05;6.50;;;1.90;;
14984;SDS011;7588;62.368;25.902;2023-03-01T09:09:31;1.60;;;1.50;;
14984;SDS011;7588;62.368;25.902;2023-03-01T09:11:57;2.17;;;1.37;;
14984;SDS011;7588;62.368;25.902;2023-03-01T09:14:23;1.63;;;1.53;;
14984;SDS011;7588;62.368;25.902;2023-03-01T09:16:49;2.27;;;1.40;;
14984;SDS011;7588;62.368;25.902;2023-03-01T09:19:16;2.50;;;1.77;;
14984;SDS011;7588;62.368;25.902;2023-03-01T09:21:42;1.33;;;1.30;;
14984;SDS011;7588;62.368;25.902;2023-03-01T09:24:17;2.23;;;1.60;;
14984;SDS011;7588;62.368;25.902;2023-03-01T09:26:48;4.53;;;1.53;;
14984;SDS011;7588;62.368;25.902;2023-03-01T09:29:14;2.90;;;1.50;;
14984;SDS011;7588;62.368;25.902;2023-03-01T09:31:41;1.87;;;1.37;;
14984;SDS011;7588;62.368;25.902;2023-03-01T09:34:07;2.50;;;1.50;;
14984;SDS011;7588;62.368;25.902;2023-03-01T09:36:33;1.73;;;1.63;;
14984;SDS011;7588;62.368;25.902;2023-03-01T09:38:59;2.87;;;1.97;;
14984;SDS011;7588;62.368;25.902;2023-03-01T09:47:01;2.13;;;1.63;;
14984;SDS011;7588;62.368;25.902;2023-03-01T09:49:29;3.20;;;1.77;;
14984;SDS011;7588;62.368;25.902;2023-03-01T09:54:44;1.73;;;1.53;;
14984;SDS011;7588;62.368;25.902;2023-03-01T10:10:48;2.17;;;1.50;;
14984;SDS011;7588;62.368;25.902;2023-03-01T10:15:57;2.30;;;1.70;;
14984;SDS011;7588;62.368;25.902;2023-03-01T10:18:29;2.00;;;1.70;;
14984;SDS011;7588;62.368;25.902;2023-03-01T10:23:26;2.83;;;1.50;;
14984;SDS011;7588;62.368;25.902;2023-03-01T10:26:08;1.77;;;1.67;;
14984;SDS011;7588;62.368;25.902;2023-03-01T10:29:06;1.30;;;1.20;;
14984;SDS011;7588;62.368;25.902;2023-03-01T10:31:37;1.00;;;1.00;;
14984;SDS011;7588;62.368;25.902;2023-03-01T10:36:39;1.60;;;1.23;;
14984;SDS011;7588;62.368;25.902;2023-03-01T10:39:19;1.57;;;1.07;;
14984;SDS011;7588;62.368;25.902;2023-03-01T10:41:57;1.23;;;1.13;;
14984;SDS011;7588;62.368;25.902;2023-03-01T10:47:16;0.93;;;0.93;;
14984;SDS011;7588;62.368;25.902;2023-03-01T10:49:53;2.07;;;1.37;;
14984;SDS011;7588;62.368;25.902;2023-03-01T10:52:27;1.77;;;1.30;;
14984;SDS011;7588;62.368;25.902;2023-03-01T10:54:58;2.00;;;1.30;;
14984;SDS011;7588;62.368;25.902;2023-03-01T10:57:39;1.60;;;1.27;;
14984;SDS011;7588;62.368;25.902;2023-03-01T11:02:51;2.03;;;1.50;;
14984;SDS011;7588;62.368;25.902;2023-03-01T11:05:29;1.50;;;1.40;;
14984;SDS011;7588;62.368;25.902;2023-03-01T11:07:56;1.60;;;1.30;;
14984;SDS011;7588;62.368;25.902;2023-03-01T11:10:25;1.50;;;1.40;;
14984;SDS011;7588;62.368;25.902;2023-03-01T11:12:54;2.90;;;1.33;;
14984;SDS011;7588;62.368;25.902;2023-03-01T11:15:40;2.57;;;1.40;;
14984;SDS011;7588;62.368;25.902;2023-03-01T11:18:05;1.40;;;1.30;;
14984;SDS011;7588;62.368;25.902;2023-03-01T11:20:46;1.90;;;1.70;;
14984;SDS011;7588;62.368;25.902;2023-03-01T11:23:16;4.03;;;1.70;;
14984;SDS011;7588;62.368;25.902;2023-03-01T11:25:43;2.70;;;1.70;;
14984;SDS011;7588;62.368;25.902;2023-03-01T11:28:15;3.57;;;1.60;;
14984;SDS011;7588;62.368;25.902;2023-03-01T11:30:55;3.27;;;1.70;;
14984;SDS011;7588;62.368;25.902;2023-03-01T11:36:06;2.13;;;1.77;;
14984;SDS011;7588;62.368;25.902;2023-03-01T11:38:51;2.37;;;1.60;;
14984;SDS011;7588;62.368;25.902;2023-03-01T11:41:20;2.70;;;1.70;;
14984;SDS011;7588;62.368;25.902;2023-03-01T11:59:52;1.50;;;1.40;;
14984;SDS011;7588;62.368;25.902;2023-03-01T12:14:08;2.77;;;1.70;;
14984;SDS011;7588;62.368;25.902;2023-03-01T12:25:57;1.50;;;1.30;;
14984;SDS011;7588;62.368;25.902;2023-03-01T12:39:32;2.10;;;1.40;;
14984;SDS011;7588;62.368;25.902;2023-03-01T12:51:04;1.20;;;1.20;;
14984;SDS011;7588;62.368;25.902;2023-03-01T12:53:36;1.80;;;1.40;;
14984;SDS011;7588;62.368;25.902;2023-03-01T12:56:06;1.43;;;1.40;;
14984;SDS011;7588;62.368;25.902;2023-03-01T13:03:58;1.47;;;1.17;;
14984;SDS011;7588;62.368;25.902;2023-03-01T13:12:01;1.60;;;1.20;;
14984;SDS011;7588;62.368;25.902;2023-03-01T13:14:36;2.10;;;1.00;;
14984;SDS011;7588;62.368;25.902;2023-03-01T13:17:24;1.30;;;1.20;;
14984;SDS011;7588;62.368;25.902;2023-03-01T13:19:56;0.80;;;0.80;;
14984;SDS011;7588;62.368;25.902;2023-03-01T13:22:30;1.90;;;1.37;;
14984;SDS011;7588;62.368;25.902;2023-03-01T13:25:02;1.70;;;0.90;;
14984;SDS011;7588;62.368;25.902;2023-03-01T13:27:38;1.00;;;1.00;;
14984;SDS011;7588;62.368;25.902;2023-03-01T13:30:03;1.60;;;0.87;;
14984;SDS011;7588;62.368;25.902;2023-03-01T13:32:49;1.47;;;1.00;;
14984;SDS011;7588;62.368;25.902;2023-03-01T13:37:44;1.50;;;1.40;;
14984;SDS011;7588;62.368;25.902;2023-03-01T13:42:47;2.47;;;0.90;;
14984;SDS011;7588;62.368;25.902;2023-03-01T13:47:45;2.10;;;1.30;;
14984;SDS011;7588;62.368;25.902;2023-03-01T13:50:21;1.20;;;1.20;;
14984;SDS011;7588;62.368;25.902;2023-03-01T13:52:59;1.10;;;1.10;;
14984;SDS011;7588;62.368;25.902;2023-03-01T13:55:34;2.90;;;1.50;;
14984;SDS011;7588;62.368;25.902;2023-03-01T13:58:03;2.10;;;1.30;;
14984;SDS011;7588;62.368;25.902;2023-03-01T14:00:39;1.70;;;1.10;;
14984;SDS011;7588;62.368;25.902;2023-03-01T14:03:09;1.30;;;1.20;;
14984;SDS011;7588;62.368;25.902;2023-03-01T14:05:44;1.87;;;1.10;;
14984;SDS011;7588;62.368;25.902;2023-03-01T14:08:34;1.47;;;1.10;;
14984;SDS011;7588;62.368;25.902;2023-03-01T14:24:38;1.80;;;1.70;;
14984;SDS011;7588;62.368;25.902;2023-03-01T14:27:12;1.30;;;1.30;;
14984;SDS011;7588;62.368;25.902;2023-03-01T14:29:38;1.47;;;1.37;;
14984;SDS011;7588;62.368;25.902;2023-03-01T14:32:08;1.53;;;1.30;;
14984;SDS011;7588;62.368;25.902;2023-03-01T14:34:53;1.60;;;1.33;;
14984;SDS011;7588;62.368;25.902;2023-03-01T14:37:27;1.40;;;1.30;;
14984;SDS011;7588;62.368;25.902;2023-03-01T14:39:58;1.47;;;1.33;;
14984;SDS011;7588;62.368;25.902;2023-03-01T14:42:27;1.30;;;1.20;;
14984;SDS011;7588;62.368;25.902;2023-03-01T14:44:59;1.23;;;1.10;;
14984;SDS011;7588;62.368;25.902;2023-03-01T14:47:27;1.20;;;1.20;;
14984;SDS011;7588;62.368;25.902;2023-03-01T14:50:07;1.03;;;1.03;;
14984;SDS011;7588;62.368;25.902;2023-03-01T14:52:38;1.30;;;1.20;;
14984;SDS011;7588;62.368;25.902;2023-03-01T14:55:15;1.47;;;1.27;;
14984;SDS011;7588;62.368;25.902;2023-03-01T14:57:44;1.70;;;1.60;;
14984;SDS011;7588;62.368;25.902;2023-03-01T15:00:19;1.50;;;1.50;;
14984;SDS011;7588;62.368;25.902;2023-03-01T15:02:48;1.20;;;1.10;;
14984;SDS011;7588;62.368;25.902;2023-03-01T15:05:15;1.53;;;1.40;;
14984;SDS011;7588;62.368;25.902;2023-03-01T15:07:54;2.17;;;1.30;;
14984;SDS011;7588;62.368;25.902;2023-03-01T15:10:25;1.83;;;1.60;;
14984;SDS011;7588;62.368;25.902;2023-03-01T15:12:54;1.60;;;1.50;;
14984;SDS011;7588;62.368;25.902;2023-03-01T15:17:54;2.00;;;1.80;;
14984;SDS011;7588;62.368;25.902;2023-03-01T15:20:23;4.00;;;2.07;;
14984;SDS011;7588;62.368;25.902;2023-03-01T15:22:52;1.90;;;1.80;;
14984;SDS011;7588;62.368;25.902;2023-03-01T15:25:23;2.40;;;2.20;;
14984;SDS011;7588;62.368;25.902;2023-03-01T15:27:51;3.27;;;1.80;;
14984;SDS011;7588;62.368;25.902;2023-03-01T15:35:45;2.70;;;1.77;;
14984;SDS011;7588;62.368;25.902;2023-03-01T15:38:26;2.30;;;2.10;;
14984;SDS011;7588;62.368;25.902;2023-03-01T15:41:24;2.57;;;2.07;;
14984;SDS011;7588;62.368;25.902;2023-03-01T15:43:51;1.73;;;1.63;;
14984;SDS011;7588;62.368;25.902;2023-03-01T15:46:31;2.07;;;1.97;;
14984;SDS011;7588;62.368;25.902;2023-03-01T15:49:02;2.47;;;2.30;;
14984;SDS011;7588;62.368;25.902;2023-03-01T15:51:49;2.33;;;2.10;;
14984;SDS011;7588;62.368;25.902;2023-03-01T15:54:19;1.90;;;1.80;;
14984;SDS011;7588;62.368;25.902;2023-03-01T15:56:47;2.50;;;2.30;;
14984;SDS011;7588;62.368;25.902;2023-03-01T15:59:13;2.10;;;2.00;;
14984;SDS011;7588;62.368;25.902;2023-03-01T16:01:42;2.03;;;1.80;;
14984;SDS011;7588;62.368;25.902;2023-03-01T16:04:12;2.77;;;2.47;;
14984;SDS011;7588;62.368;25.902;2023-03-01T16:06:45;2.80;;;2.60;;
14984;SDS011;7588;62.368;25.902;2023-03-01T16:09:24;2.27;;;2.07;;
14984;SDS011;7588;62.368;25.902;2023-03-01T16:11:50;2.63;;;2.40;;
14984;SDS011;7588;62.368;25.902;2023-03-01T16:14:18;3.43;;;2.37;;
14984;SDS011;7588;62.368;25.902;2023-03-01T16:16:45;2.60;;;2.37;;
14984;SDS011;7588;62.368;25.902;2023-03-01T16:19:11;2.17;;;2.00;;
14984;SDS011;7588;62.368;25.902;2023-03-01T16:21:37;1.87;;;1.77;;
14984;SDS011;7588;62.368;25.902;2023-03-01T16:24:03;2.10;;;1.90;;
14984;SDS011;7588;62.368;25.902;2023-03-01T16:26:29;1.83;;;1.73;;
14984;SDS011;7588;62.368;25.902;2023-03-01T16:28:55;3.37;;;1.73;;
14984;SDS011;7588;62.368;25.902;2023-03-01T16:31:22;2.00;;;1.90;;
14984;SDS011;7588;62.368;25.902;2023-03-01T16:33:48;2.40;;;2.03;;
14984;SDS011;7588;62.368;25.902;2023-03-01T16:36:17;2.13;;;1.80;;
14984;SDS011;7588;62.368;25.902;2023-03-01T16:38:44;1.83;;;1.73;;
14984;SDS011;7588;62.368;25.902;2023-03-01T16:41:13;2.13;;;1.60;;
14984;SDS011;7588;62.368;25.902;2023-03-01T16:43:41;3.47;;;1.93;;
14984;SDS011;7588;62.368;25.902;2023-03-01T16:46:11;2.90;;;2.27;;
14984;SDS011;7588;62.368;25.902;2023-03-01T16:48:38;1.93;;;1.73;;
14984;SDS011;7588;62.368;25.902;2023-03-01T16:51:04;1.90;;;1.80;;
14984;SDS011;7588;62.368;25.902;2023-03-01T16:53:30;1.70;;;1.60;;
14984;SDS011;7588;62.368;25.902;2023-03-01T16:55:56;1.73;;;1.63;;
14984;SDS011;7588;62.368;25.902;2023-03-01T16:58:23;1.67;;;1.57;;
14984;SDS011;7588;62.368;25.902;2023-03-01T17:00:50;1.73;;;1.63;;
14984;SDS011;7588;62.368;25.902;2023-03-01T17:03:23;1.70;;;1.60;;
14984;SDS011;7588;62.368;25.902;2023-03-01T17:05:50;1.80;;;1.70;;
14984;SDS011;7588;62.368;25.902;2023-03-01T17:08:17;3.43;;;1.60;;
14984;SDS011;7588;62.368;25.902;2023-03-01T17:10:43;1.73;;;1.63;;
14984;SDS011;7588;62.368;25.902;2023-03-01T17:13:09;2.37;;;2.17;;
14984;SDS011;7588;62.368;25.902;2023-03-01T17:15:41;1.80;;;1.27;;
14984;SDS011;7588;62.368;25.902;2023-03-01T17:18:07;2.10;;;2.00;;
14984;SDS011;7588;62.368;25.902;2023-03-01T17:20:34;1.73;;;1.60;;
14984;SDS011;7588;62.368;25.902;2023-03-01T17:23:01;1.53;;;1.53;;
14984;SDS011;7588;62.368;25.902;2023-03-01T17:25:26;1.83;;;1.73;;
14984;SDS011;7588;62.368;25.902;2023-03-01T17:27:53;2.07;;;1.97;;